Monday, September 26, 2016, 1:18 AM EDT
Back to Local

KMPO, Mt Pocono Pocono Mountains

Location: Pocono Summit, PA, United States Lat: 41.133
Local Time: 1:18 AM EDT ( 5:18 GMT) Lon: -75.383
Time Zone: US/Eastern Elev: 1915 ft

Show me the last for .
Show Decoded

2016-09-26 00:53 METAR KMPO 260453Z AUTO 00000KT 10SM CLR 04/02 A3020 RMK AO2 SLP233 T00390017
                 401720028 $ =
2016-09-25 23:53 METAR KMPO 260353Z AUTO 00000KT 10SM CLR 05/02 A3020 RMK AO2 SLP231 T00500022 $
                 =
2016-09-25 22:53 METAR KMPO 260253Z AUTO 00000KT 10SM CLR 06/02 A3020 RMK AO2 SLP232 T00610022
                 50005 $ =
2016-09-25 21:53 METAR KMPO 260153Z AUTO 34003KT 10SM CLR 07/03 A3021 RMK AO2 SLP235 T00720028 $
                 =
2016-09-25 20:53 METAR KMPO 260053Z AUTO 35004KT 10SM CLR 07/04 A3020 RMK AO2 SLP233 T00670039 $
                 =
2016-09-25 19:53 METAR KMPO 252353Z AUTO 36004KT 10SM CLR 08/04 A3018 RMK AO2 SLP228 T00830044
                 10172 20083 53008 $ =
2016-09-25 18:53 METAR KMPO 252253Z AUTO 31003KT 10SM CLR 12/04 A3018 RMK AO2 SLP226 T01170039 $
                 =
2016-09-25 17:53 METAR KMPO 252153Z AUTO 31006KT 10SM CLR 16/02 A3016 RMK AO2 SLP220 T01560017 $
                 =
2016-09-25 16:53 METAR KMPO 252053Z AUTO VRB05KT 10SM CLR 17/00 A3016 RMK AO2 SLP218 T01670000
                 56009 $ =
2016-09-25 15:53 METAR KMPO 251953Z AUTO 31010KT 10SM CLR 17/01 A3017 RMK AO2 SLP220 T01670011 $
                 =
2016-09-25 14:53 METAR KMPO 251853Z AUTO 27007KT 10SM CLR 16/01 A3018 RMK AO2 SLP223 T01610011 $
                 =
2016-09-25 13:53 METAR KMPO 251753Z AUTO 32007KT 10SM CLR 16/02 A3019 RMK AO2 SLP227 T01560017
                 10167 20089 58010 $ =
2016-09-25 12:53 METAR KMPO 251653Z AUTO VRB05KT 10SM CLR 16/03 A3020 RMK AO2 SLP231 T01560028 $
                 =
2016-09-25 11:53 METAR KMPO 251553Z AUTO 36011G19KT 320V040 10SM CLR 15/03 A3021 RMK AO2 SLP234
                 T01500028 $ =
2016-09-25 10:53 METAR KMPO 251453Z AUTO 33008KT 10SM CLR 14/03 A3022 RMK AO2 SLP237 T01390033
                 51006 $ =
2016-09-25 09:53 METAR KMPO 251353Z AUTO VRB06KT 10SM CLR 12/04 A3022 RMK AO2 SLP236 T01220039 $
                 =
2016-09-25 08:53 METAR KMPO 251253Z AUTO 03006KT 10SM CLR 11/04 A3021 RMK AO2 SLP234 T01110039 $
                 =
2016-09-25 07:53 METAR KMPO 251153Z AUTO VRB03KT 10SM CLR 09/04 A3020 RMK AO2 SLP233 T00890039
                 10089 20028 53005 $ =
2016-09-25 06:53 METAR KMPO 251053Z AUTO VRB03KT 10SM CLR 06/03 A3019 RMK AO2 SLP230 T00560028 $
                 =
2016-09-25 05:53 METAR KMPO 250953Z AUTO 00000KT 10SM CLR 03/02 A3019 RMK AO2 SLP231 T00330017 $
                 =
2016-09-25 04:53 METAR KMPO 250853Z AUTO 00000KT 10SM CLR 03/02 A3019 RMK AO2 SLP227 T00330022
                 55002 $ =
2016-09-25 03:53 METAR KMPO 250753Z AUTO 34005KT 10SM CLR 03/02 A3018 RMK AO2 SLP226 T00330017 $
                 =
2016-09-25 02:53 METAR KMPO 250653Z AUTO 00000KT 10SM CLR 04/03 A3019 RMK AO2 SLP227 T00440028 $
                 =
2016-09-25 01:53 METAR KMPO 250553Z AUTO 34004KT 10SM CLR 06/03 A3019 RMK AO2 SLP227 T00560028
                 10111 20056 53003 $ =

Support USWX by starting your Amazon purchase here.